Terminal Aerodrome Forecast
Issued by NWS

Home | Current Version | Previous Version | Text Only | Print | Product List | Glossary On
Versions: 1 2 3 4 5 6 7 8 9 10 11 12
000
FTUS41 KCAR 042324
TAFPQI
TAF
KPQI 042324Z 0500/0524 19010KT P6SM BKN120
     FM050300 23010KT P6SM BKN050
     FM050800 28010KT P6SM SCT050
     FM051200 31012G24KT P6SM FEW030 SCT250
      TEMPO 0522/0524 BKN100
      AMD LTD TO CLD VIS AND WIND=

USA.gov is the U.S. government's official web portal to all federal, state and local government web resources and services.